sensor_id;sensor_type;location;lat;lon;timestamp;temperature;humidity
23813;DHT22;12087;45.190;5.688;2023-05-15T00:04:10;13.60;99.90
23813;DHT22;12087;45.190;5.688;2023-05-15T00:09:32;13.60;99.90
23813;DHT22;12087;45.190;5.688;2023-05-15T00:14:56;13.60;99.90
23813;DHT22;12087;45.190;5.688;2023-05-15T00:20:18;13.60;99.90
23813;DHT22;12087;45.190;5.688;2023-05-15T00:25:40;13.60;99.90
23813;DHT22;12087;45.190;5.688;2023-05-15T00:31:04;13.50;99.90
23813;DHT22;12087;45.190;5.688;2023-05-15T00:36:28;13.50;99.90
23813;DHT22;12087;45.190;5.688;2023-05-15T00:41:51;13.50;99.90
23813;DHT22;12087;45.190;5.688;2023-05-15T00:47:15;13.50;99.90
23813;DHT22;12087;45.190;5.688;2023-05-15T00:52:38;13.50;99.90
23813;DHT22;12087;45.190;5.688;2023-05-15T00:58:00;13.60;99.90
23813;DHT22;12087;45.190;5.688;2023-05-15T01:03:24;13.50;99.90
23813;DHT22;12087;45.190;5.688;2023-05-15T01:08:47;13.50;99.90
23813;DHT22;12087;45.190;5.688;2023-05-15T01:14:10;13.40;99.90
23813;DHT22;12087;45.190;5.688;2023-05-15T01:19:34;13.40;99.90
23813;DHT22;12087;45.190;5.688;2023-05-15T01:25:23;13.40;99.90
23813;DHT22;12087;45.190;5.688;2023-05-15T01:30:49;13.40;99.90
23813;DHT22;12087;45.190;5.688;2023-05-15T01:36:17;13.40;99.90
23813;DHT22;12087;45.190;5.688;2023-05-15T01:41:43;13.40;99.90
23813;DHT22;12087;45.190;5.688;2023-05-15T01:47:12;13.40;99.90
23813;DHT22;12087;45.190;5.688;2023-05-15T01:52:37;13.50;99.90
23813;DHT22;12087;45.190;5.688;2023-05-15T01:58:01;13.50;99.90
23813;DHT22;12087;45.190;5.688;2023-05-15T02:03:25;13.50;99.90
23813;DHT22;12087;45.190;5.688;2023-05-15T02:08:47;13.50;99.90
23813;DHT22;12087;45.190;5.688;2023-05-15T02:14:11;13.60;99.90
23813;DHT22;12087;45.190;5.688;2023-05-15T02:19:37;13.60;99.90
23813;DHT22;12087;45.190;5.688;2023-05-15T02:24:59;13.60;99.90
23813;DHT22;12087;45.190;5.688;2023-05-15T02:30:32;13.60;99.90
23813;DHT22;12087;45.190;5.688;2023-05-15T02:36:00;13.60;99.90
23813;DHT22;12087;45.190;5.688;2023-05-15T02:41:23;13.60;99.90
23813;DHT22;12087;45.190;5.688;2023-05-15T02:46:46;13.60;99.90
23813;DHT22;12087;45.190;5.688;2023-05-15T02:52:10;13.60;99.90
23813;DHT22;12087;45.190;5.688;2023-05-15T02:57:32;13.60;99.90
23813;DHT22;12087;45.190;5.688;2023-05-15T03:02:55;13.60;99.90
23813;DHT22;12087;45.190;5.688;2023-05-15T03:08:19;13.60;99.90
23813;DHT22;12087;45.190;5.688;2023-05-15T03:13:41;13.60;99.90
23813;DHT22;12087;45.190;5.688;2023-05-15T03:19:03;13.60;99.90
23813;DHT22;12087;45.190;5.688;2023-05-15T03:24:27;13.60;99.90
23813;DHT22;12087;45.190;5.688;2023-05-15T03:29:49;13.50;99.90
23813;DHT22;12087;45.190;5.688;2023-05-15T03:35:12;13.50;99.90
23813;DHT22;12087;45.190;5.688;2023-05-15T03:40:37;13.50;99.90
23813;DHT22;12087;45.190;5.688;2023-05-15T03:45:59;13.50;99.90
23813;DHT22;12087;45.190;5.688;2023-05-15T03:51:21;13.50;99.90
23813;DHT22;12087;45.190;5.688;2023-05-15T03:56:46;13.50;99.90
23813;DHT22;12087;45.190;5.688;2023-05-15T04:02:08;13.50;99.90
23813;DHT22;12087;45.190;5.688;2023-05-15T04:07:32;13.50;99.90
23813;DHT22;12087;45.190;5.688;2023-05-15T04:12:56;13.50;99.90
23813;DHT22;12087;45.190;5.688;2023-05-15T04:18:18;13.40;99.90
23813;DHT22;12087;45.190;5.688;2023-05-15T04:23:40;13.40;99.90
23813;DHT22;12087;45.190;5.688;2023-05-15T04:29:04;13.40;99.90
23813;DHT22;12087;45.190;5.688;2023-05-15T04:34:26;13.40;99.90
23813;DHT22;12087;45.190;5.688;2023-05-15T04:39:51;13.40;99.90
23813;DHT22;12087;45.190;5.688;2023-05-15T04:45:14;13.40;99.90
23813;DHT22;12087;45.190;5.688;2023-05-15T04:50:37;13.50;99.90
23813;DHT22;12087;45.190;5.688;2023-05-15T04:55:59;13.50;99.90
23813;DHT22;12087;45.190;5.688;2023-05-15T05:01:22;13.60;99.90
23813;DHT22;12087;45.190;5.688;2023-05-15T05:06:45;13.60;99.90
23813;DHT22;12087;45.190;5.688;2023-05-15T05:12:07;13.60;99.90
23813;DHT22;12087;45.190;5.688;2023-05-15T05:17:31;13.60;99.90
23813;DHT22;12087;45.190;5.688;2023-05-15T05:22:54;13.60;99.90
23813;DHT22;12087;45.190;5.688;2023-05-15T05:28:16;13.70;99.90
23813;DHT22;12087;45.190;5.688;2023-05-15T05:33:40;13.70;99.90
23813;DHT22;12087;45.190;5.688;2023-05-15T05:39:02;13.80;99.90
23813;DHT22;12087;45.190;5.688;2023-05-15T05:44:25;13.80;99.90
23813;DHT22;12087;45.190;5.688;2023-05-15T05:49:49;13.90;99.90
23813;DHT22;12087;45.190;5.688;2023-05-15T05:55:11;14.00;99.90
23813;DHT22;12087;45.190;5.688;2023-05-15T06:00:33;14.10;99.90
23813;DHT22;12087;45.190;5.688;2023-05-15T06:05:57;14.20;99.90
23813;DHT22;12087;45.190;5.688;2023-05-15T06:11:19;14.20;99.90
23813;DHT22;12087;45.190;5.688;2023-05-15T06:16:42;14.20;99.90
23813;DHT22;12087;45.190;5.688;2023-05-15T06:22:06;14.30;99.90
23813;DHT22;12087;45.190;5.688;2023-05-15T06:27:28;14.30;99.90
23813;DHT22;12087;45.190;5.688;2023-05-15T06:32:50;14.40;99.90
23813;DHT22;12087;45.190;5.688;2023-05-15T06:38:14;14.40;99.90
23813;DHT22;12087;45.190;5.688;2023-05-15T06:43:36;14.40;99.90
23813;DHT22;12087;45.190;5.688;2023-05-15T06:48:58;14.40;99.90
23813;DHT22;12087;45.190;5.688;2023-05-15T06:54:22;14.40;99.90
23813;DHT22;12087;45.190;5.688;2023-05-15T06:59:44;14.50;99.90
23813;DHT22;12087;45.190;5.688;2023-05-15T07:05:06;14.70;99.90
23813;DHT22;12087;45.190;5.688;2023-05-15T07:10:31;14.90;99.90
23813;DHT22;12087;45.190;5.688;2023-05-15T07:15:53;15.00;99.90
23813;DHT22;12087;45.190;5.688;2023-05-15T07:21:15;15.10;99.90
23813;DHT22;12087;45.190;5.688;2023-05-15T07:26:39;15.20;99.90
23813;DHT22;12087;45.190;5.688;2023-05-15T07:32:01;15.30;99.90
23813;DHT22;12087;45.190;5.688;2023-05-15T07:37:23;15.40;99.90
23813;DHT22;12087;45.190;5.688;2023-05-15T07:42:47;15.60;99.90
23813;DHT22;12087;45.190;5.688;2023-05-15T07:48:12;15.70;99.90
23813;DHT22;12087;45.190;5.688;2023-05-15T07:53:35;15.80;99.90
23813;DHT22;12087;45.190;5.688;2023-05-15T07:58:58;15.70;99.90
23813;DHT22;12087;45.190;5.688;2023-05-15T08:04:21;15.60;99.90
23813;DHT22;12087;45.190;5.688;2023-05-15T08:09:43;15.50;99.90
23813;DHT22;12087;45.190;5.688;2023-05-15T08:15:08;15.40;99.90
23813;DHT22;12087;45.190;5.688;2023-05-15T08:20:30;15.40;99.90
23813;DHT22;12087;45.190;5.688;2023-05-15T08:25:53;15.40;99.90
23813;DHT22;12087;45.190;5.688;2023-05-15T08:31:16;15.40;99.90
23813;DHT22;12087;45.190;5.688;2023-05-15T08:36:39;15.40;99.90
23813;DHT22;12087;45.190;5.688;2023-05-15T08:42:07;15.40;99.90
23813;DHT22;12087;45.190;5.688;2023-05-15T08:47:34;15.40;99.90
23813;DHT22;12087;45.190;5.688;2023-05-15T08:52:56;15.50;99.90
23813;DHT22;12087;45.190;5.688;2023-05-15T08:58:21;15.60;99.90
23813;DHT22;12087;45.190;5.688;2023-05-15T09:03:47;15.70;99.90
23813;DHT22;12087;45.190;5.688;2023-05-15T09:09:09;15.90;99.90
23813;DHT22;12087;45.190;5.688;2023-05-15T09:14:33;16.30;99.90
23813;DHT22;12087;45.190;5.688;2023-05-15T09:19:57;16.40;99.90
23813;DHT22;12087;45.190;5.688;2023-05-15T09:25:32;16.30;99.90
23813;DHT22;12087;45.190;5.688;2023-05-15T09:31:00;16.30;99.90
23813;DHT22;12087;45.190;5.688;2023-05-15T09:36:24;16.30;99.90
23813;DHT22;12087;45.190;5.688;2023-05-15T09:41:46;16.30;99.90
23813;DHT22;12087;45.190;5.688;2023-05-15T09:47:08;16.50;99.90
23813;DHT22;12087;45.190;5.688;2023-05-15T09:52:32;16.50;99.90
23813;DHT22;12087;45.190;5.688;2023-05-15T09:58:05;16.60;99.90
23813;DHT22;12087;45.190;5.688;2023-05-15T10:03:27;17.00;99.90
23813;DHT22;12087;45.190;5.688;2023-05-15T10:08:54;17.40;99.90
23813;DHT22;12087;45.190;5.688;2023-05-15T10:14:17;17.70;99.90
23813;DHT22;12087;45.190;5.688;2023-05-15T10:19:41;17.60;99.90
23813;DHT22;12087;45.190;5.688;2023-05-15T10:25:08;17.80;99.90
23813;DHT22;12087;45.190;5.688;2023-05-15T10:30:35;18.20;99.90
23813;DHT22;12087;45.190;5.688;2023-05-15T10:35:58;18.10;99.90
23813;DHT22;12087;45.190;5.688;2023-05-15T10:41:22;18.00;99.90
23813;DHT22;12087;45.190;5.688;2023-05-15T10:46:46;18.20;99.90
23813;DHT22;12087;45.190;5.688;2023-05-15T10:52:08;18.00;99.90
23813;DHT22;12087;45.190;5.688;2023-05-15T10:57:32;17.70;99.90
23813;DHT22;12087;45.190;5.688;2023-05-15T11:02:54;17.40;99.90
23813;DHT22;12087;45.190;5.688;2023-05-15T11:08:24;17.30;99.90
23813;DHT22;12087;45.190;5.688;2023-05-15T11:14:15;17.40;99.90
23813;DHT22;12087;45.190;5.688;2023-05-15T11:19:55;18.10;99.90
23813;DHT22;12087;45.190;5.688;2023-05-15T11:25:28;18.20;99.90
23813;DHT22;12087;45.190;5.688;2023-05-15T11:30:56;18.10;99.90
23813;DHT22;12087;45.190;5.688;2023-05-15T11:36:23;18.20;99.90
23813;DHT22;12087;45.190;5.688;2023-05-15T11:41:45;18.20;99.90
23813;DHT22;12087;45.190;5.688;2023-05-15T11:47:10;18.20;99.90
23813;DHT22;12087;45.190;5.688;2023-05-15T11:52:33;18.10;99.90
23813;DHT22;12087;45.190;5.688;2023-05-15T11:57:56;18.30;99.90
23813;DHT22;12087;45.190;5.688;2023-05-15T12:03:23;18.40;99.90
23813;DHT22;12087;45.190;5.688;2023-05-15T12:08:50;18.50;99.90
23813;DHT22;12087;45.190;5.688;2023-05-15T12:14:12;19.10;99.90
23813;DHT22;12087;45.190;5.688;2023-05-15T12:19:36;19.30;99.90
23813;DHT22;12087;45.190;5.688;2023-05-15T12:24:58;19.20;99.90
23813;DHT22;12087;45.190;5.688;2023-05-15T12:30:21;19.90;99.90
23813;DHT22;12087;45.190;5.688;2023-05-15T12:35:50;20.30;99.90
23813;DHT22;12087;45.190;5.688;2023-05-15T12:41:14;20.50;99.90
23813;DHT22;12087;45.190;5.688;2023-05-15T12:46:36;20.60;99.90
23813;DHT22;12087;45.190;5.688;2023-05-15T12:52:07;20.80;99.90
23813;DHT22;12087;45.190;5.688;2023-05-15T12:57:29;20.40;99.90
23813;DHT22;12087;45.190;5.688;2023-05-15T13:02:53;19.70;99.90
23813;DHT22;12087;45.190;5.688;2023-05-15T13:08:17;19.20;99.90
23813;DHT22;12087;45.190;5.688;2023-05-15T13:13:41;18.90;99.90
23813;DHT22;12087;45.190;5.688;2023-05-15T13:19:04;19.10;99.90
23813;DHT22;12087;45.190;5.688;2023-05-15T13:24:28;19.00;99.90
23813;DHT22;12087;45.190;5.688;2023-05-15T13:29:52;19.50;99.90
23813;DHT22;12087;45.190;5.688;2023-05-15T13:35:14;20.30;99.90
23813;DHT22;12087;45.190;5.688;2023-05-15T13:40:38;20.90;99.90
23813;DHT22;12087;45.190;5.688;2023-05-15T13:46:00;20.90;99.90
23813;DHT22;12087;45.190;5.688;2023-05-15T13:51:23;20.20;99.90
23813;DHT22;12087;45.190;5.688;2023-05-15T13:56:46;19.50;99.90
23813;DHT22;12087;45.190;5.688;2023-05-15T14:02:09;19.10;99.90
23813;DHT22;12087;45.190;5.688;2023-05-15T14:07:31;18.70;99.90
23813;DHT22;12087;45.190;5.688;2023-05-15T14:12:54;18.20;99.90
23813;DHT22;12087;45.190;5.688;2023-05-15T14:18:17;17.90;99.90
23813;DHT22;12087;45.190;5.688;2023-05-15T14:23:39;17.90;99.90
23813;DHT22;12087;45.190;5.688;2023-05-15T14:29:02;18.00;99.90
23813;DHT22;12087;45.190;5.688;2023-05-15T14:34:25;18.10;99.90
23813;DHT22;12087;45.190;5.688;2023-05-15T14:39:47;18.20;99.90
23813;DHT22;12087;45.190;5.688;2023-05-15T14:45:11;18.30;99.90
23813;DHT22;12087;45.190;5.688;2023-05-15T14:50:33;18.40;99.90
23813;DHT22;12087;45.190;5.688;2023-05-15T14:55:55;18.50;99.90
23813;DHT22;12087;45.190;5.688;2023-05-15T15:01:19;18.70;99.90
23813;DHT22;12087;45.190;5.688;2023-05-15T15:06:42;18.90;99.90
23813;DHT22;12087;45.190;5.688;2023-05-15T15:12:05;19.00;99.90
23813;DHT22;12087;45.190;5.688;2023-05-15T15:17:29;18.90;99.90
23813;DHT22;12087;45.190;5.688;2023-05-15T15:22:51;18.70;99.90
23813;DHT22;12087;45.190;5.688;2023-05-15T15:28:14;18.70;99.90
23813;DHT22;12087;45.190;5.688;2023-05-15T15:33:37;18.90;99.90
23813;DHT22;12087;45.190;5.688;2023-05-15T15:38:59;18.50;99.90
23813;DHT22;12087;45.190;5.688;2023-05-15T15:44:22;18.10;99.90
23813;DHT22;12087;45.190;5.688;2023-05-15T15:49:46;18.00;99.90
23813;DHT22;12087;45.190;5.688;2023-05-15T15:55:09;17.90;99.90
23813;DHT22;12087;45.190;5.688;2023-05-15T16:00:31;17.90;99.90
23813;DHT22;12087;45.190;5.688;2023-05-15T16:05:55;17.80;99.90
23813;DHT22;12087;45.190;5.688;2023-05-15T16:11:17;17.90;99.90
23813;DHT22;12087;45.190;5.688;2023-05-15T16:16:39;18.10;99.90
23813;DHT22;12087;45.190;5.688;2023-05-15T16:22:03;18.30;99.90
23813;DHT22;12087;45.190;5.688;2023-05-15T16:27:25;18.50;99.90
23813;DHT22;12087;45.190;5.688;2023-05-15T16:32:48;18.60;99.90
23813;DHT22;12087;45.190;5.688;2023-05-15T16:38:12;18.70;99.90
23813;DHT22;12087;45.190;5.688;2023-05-15T16:43:35;18.90;99.90
23813;DHT22;12087;45.190;5.688;2023-05-15T16:48:58;18.90;99.90
23813;DHT22;12087;45.190;5.688;2023-05-15T16:54:22;18.80;99.90
23813;DHT22;12087;45.190;5.688;2023-05-15T16:59:44;18.80;99.90
23813;DHT22;12087;45.190;5.688;2023-05-15T17:05:07;18.50;99.90
23813;DHT22;12087;45.190;5.688;2023-05-15T17:10:31;18.30;99.90
23813;DHT22;12087;45.190;5.688;2023-05-15T17:15:53;18.20;99.90
23813;DHT22;12087;45.190;5.688;2023-05-15T17:21:15;18.20;99.90
23813;DHT22;12087;45.190;5.688;2023-05-15T17:26:39;18.10;99.90
23813;DHT22;12087;45.190;5.688;2023-05-15T17:32:02;18.10;99.90
23813;DHT22;12087;45.190;5.688;2023-05-15T17:37:24;18.00;99.90
23813;DHT22;12087;45.190;5.688;2023-05-15T17:42:47;18.00;99.90
23813;DHT22;12087;45.190;5.688;2023-05-15T17:48:10;17.90;99.90
23813;DHT22;12087;45.190;5.688;2023-05-15T17:53:32;17.90;99.90
23813;DHT22;12087;45.190;5.688;2023-05-15T17:58:56;17.90;99.90
23813;DHT22;12087;45.190;5.688;2023-05-15T18:04:18;17.80;99.90
23813;DHT22;12087;45.190;5.688;2023-05-15T18:09:40;17.80;99.90
23813;DHT22;12087;45.190;5.688;2023-05-15T18:15:04;17.80;99.90
23813;DHT22;12087;45.190;5.688;2023-05-15T18:20:27;17.70;99.90
23813;DHT22;12087;45.190;5.688;2023-05-15T18:25:49;17.70;99.90
23813;DHT22;12087;45.190;5.688;2023-05-15T18:31:13;17.60;99.90
23813;DHT22;12087;45.190;5.688;2023-05-15T18:36:35;17.60;99.90
23813;DHT22;12087;45.190;5.688;2023-05-15T18:41:57;17.50;99.90
23813;DHT22;12087;45.190;5.688;2023-05-15T18:47:21;17.40;99.90
23813;DHT22;12087;45.190;5.688;2023-05-15T18:52:43;17.30;99.90
23813;DHT22;12087;45.190;5.688;2023-05-15T18:58:06;17.20;99.90
23813;DHT22;12087;45.190;5.688;2023-05-15T19:03:29;17.20;99.90
23813;DHT22;12087;45.190;5.688;2023-05-15T19:08:52;17.10;99.90
23813;DHT22;12087;45.190;5.688;2023-05-15T19:14:14;17.00;99.90
23813;DHT22;12087;45.190;5.688;2023-05-15T19:19:39;17.00;99.90
23813;DHT22;12087;45.190;5.688;2023-05-15T19:25:01;16.90;99.90
23813;DHT22;12087;45.190;5.688;2023-05-15T19:30:24;16.80;99.90
23813;DHT22;12087;45.190;5.688;2023-05-15T19:35:48;16.80;99.90
23813;DHT22;12087;45.190;5.688;2023-05-15T19:41:10;16.70;99.90
23813;DHT22;12087;45.190;5.688;2023-05-15T19:46:32;16.70;99.90
23813;DHT22;12087;45.190;5.688;2023-05-15T19:51:56;16.70;99.90
23813;DHT22;12087;45.190;5.688;2023-05-15T19:57:18;16.60;99.90
23813;DHT22;12087;45.190;5.688;2023-05-15T20:02:40;16.60;99.90
23813;DHT22;12087;45.190;5.688;2023-05-15T20:08:04;16.60;99.90
23813;DHT22;12087;45.190;5.688;2023-05-15T20:13:27;16.60;99.90
23813;DHT22;12087;45.190;5.688;2023-05-15T20:18:49;16.50;99.90
23813;DHT22;12087;45.190;5.688;2023-05-15T20:24:15;16.50;99.90
23813;DHT22;12087;45.190;5.688;2023-05-15T20:29:38;16.50;99.90
23813;DHT22;12087;45.190;5.688;2023-05-15T20:35:00;16.40;99.90
23813;DHT22;12087;45.190;5.688;2023-05-15T20:40:24;16.40;99.90
23813;DHT22;12087;45.190;5.688;2023-05-15T20:45:46;16.30;99.90
23813;DHT22;12087;45.190;5.688;2023-05-15T20:51:09;16.40;99.90
23813;DHT22;12087;45.190;5.688;2023-05-15T20:56:32;16.30;99.90
23813;DHT22;12087;45.190;5.688;2023-05-15T21:01:54;16.30;99.90
23813;DHT22;12087;45.190;5.688;2023-05-15T21:07:17;16.30;99.90
23813;DHT22;12087;45.190;5.688;2023-05-15T21:12:40;16.30;99.90
23813;DHT22;12087;45.190;5.688;2023-05-15T21:18:03;16.30;99.90
23813;DHT22;12087;45.190;5.688;2023-05-15T21:23:25;16.20;99.90
23813;DHT22;12087;45.190;5.688;2023-05-15T21:28:48;16.20;99.90
23813;DHT22;12087;45.190;5.688;2023-05-15T21:34:11;16.10;99.90
23813;DHT22;12087;45.190;5.688;2023-05-15T21:39:33;16.10;99.90
23813;DHT22;12087;45.190;5.688;2023-05-15T21:44:57;15.90;99.90
23813;DHT22;12087;45.190;5.688;2023-05-15T21:50:19;15.90;99.90
23813;DHT22;12087;45.190;5.688;2023-05-15T21:55:41;15.90;99.90
23813;DHT22;12087;45.190;5.688;2023-05-15T22:01:05;15.90;99.90
23813;DHT22;12087;45.190;5.688;2023-05-15T22:06:27;15.80;99.90
23813;DHT22;12087;45.190;5.688;2023-05-15T22:11:50;15.80;99.90
23813;DHT22;12087;45.190;5.688;2023-05-15T22:17:14;15.80;99.90
23813;DHT22;12087;45.190;5.688;2023-05-15T22:22:37;15.70;99.90
23813;DHT22;12087;45.190;5.688;2023-05-15T22:28:00;15.70;99.90
23813;DHT22;12087;45.190;5.688;2023-05-15T22:33:24;15.70;99.90
23813;DHT22;12087;45.190;5.688;2023-05-15T22:38:46;15.70;99.90
23813;DHT22;12087;45.190;5.688;2023-05-15T22:44:09;15.60;99.90
23813;DHT22;12087;45.190;5.688;2023-05-15T22:49:32;15.70;99.90
23813;DHT22;12087;45.190;5.688;2023-05-15T22:54:54;15.70;99.90
23813;DHT22;12087;45.190;5.688;2023-05-15T23:00:17;15.60;99.90
23813;DHT22;12087;45.190;5.688;2023-05-15T23:05:41;15.60;99.90
23813;DHT22;12087;45.190;5.688;2023-05-15T23:11:04;15.60;99.90
23813;DHT22;12087;45.190;5.688;2023-05-15T23:16:26;15.50;99.90
23813;DHT22;12087;45.190;5.688;2023-05-15T23:21:50;15.50;99.90
23813;DHT22;12087;45.190;5.688;2023-05-15T23:27:13;15.40;99.90
23813;DHT22;12087;45.190;5.688;2023-05-15T23:32:35;15.40;99.90
23813;DHT22;12087;45.190;5.688;2023-05-15T23:37:59;15.30;99.90
23813;DHT22;12087;45.190;5.688;2023-05-15T23:43:21;15.20;99.90
23813;DHT22;12087;45.190;5.688;2023-05-15T23:48:43;15.20;99.90
23813;DHT22;12087;45.190;5.688;2023-05-15T23:54:07;15.10;99.90
23813;DHT22;12087;45.190;5.688;2023-05-15T23:59:29;15.10;99.90
